Baker City, Oregon
Current Conditions -  °F | °C
As of 9:53 AM on Thursday 23 Oct 2014 (Local Time) from KBKE Reporting Station
Light Rain Light Rain  
Wind Chill: 54°   Ceiling: 4100
Heat Index: 54°   Visibility: 10mi
Dew Point: 42°   Wind: 14mph
Humidity: 64%   Direction: 90°E
Pressure: 29.95"   Gusts: NA
Location:  44.77°N, 117.83°W
Report Text: KBKE 231653Z AUTO 09012KT 10SM -RA OVC041 12/06 A2995 RMK AO2 SLP138 P0000 T01220056
Loading
Personal Weather Stations






























Interactive Weather Map
Tropical Storm Tracking
New forecast layout! Learn more

10-Day Weather Forecast

Advertisements
Track Severe Weather on mobile